createdAt,value
2019-05-06T00:00:58.365Z,3.80
2019-05-06T00:03:24.811Z,4.70
2019-05-06T00:05:54.278Z,5.42
2019-05-06T00:08:23.668Z,5.72
2019-05-06T00:10:54.276Z,7.92
2019-05-06T00:13:24.138Z,6.45
2019-05-06T00:15:54.361Z,4.40
2019-05-06T00:18:24.534Z,5.58
2019-05-06T00:20:57.220Z,4.62
2019-05-06T00:23:28.353Z,5.05
2019-05-06T00:26:01.427Z,5.58
2019-05-06T00:28:33.824Z,3.98
2019-05-06T00:31:12.342Z,5.85
2019-05-06T00:33:34.189Z,6.08
2019-05-06T00:36:04.717Z,4.83
2019-05-06T00:38:34.004Z,5.45
2019-05-06T00:41:04.816Z,6.67
2019-05-06T00:43:34.489Z,4.17
2019-05-06T00:46:04.689Z,4.45
2019-05-06T00:48:34.092Z,4.35
2019-05-06T00:51:04.491Z,4.35
2019-05-06T00:53:44.106Z,6.22
2019-05-06T00:56:14.006Z,5.30
2019-05-06T00:58:43.570Z,4.80
2019-05-06T01:01:24.123Z,4.25
2019-05-06T01:03:44.239Z,4.08
2019-05-06T01:06:14.235Z,9.08
2019-05-06T01:08:44.082Z,7.80
2019-05-06T01:11:15.372Z,4.12
2019-05-06T01:13:51.875Z,4.67
2019-05-06T01:16:21.368Z,5.85
2019-05-06T01:18:50.173Z,5.33
2019-05-06T01:21:18.963Z,4.17
2019-05-06T01:23:49.167Z,5.92
2019-05-06T01:26:17.903Z,5.70
2019-05-06T01:28:46.706Z,6.30
2019-05-06T01:31:15.537Z,5.72
2019-05-06T01:33:45.248Z,7.00
2019-05-06T01:36:14.341Z,4.62
2019-05-06T01:38:45.111Z,5.22
2019-05-06T01:41:15.415Z,5.47
2019-05-06T01:43:45.443Z,5.60
2019-05-06T01:46:14.286Z,6.80
2019-05-06T01:48:48.650Z,5.05
2019-05-06T01:51:19.918Z,5.65
2019-05-06T01:53:49.797Z,7.10
2019-05-06T01:56:18.619Z,6.70
2019-05-06T01:58:47.401Z,4.67
2019-05-06T02:01:16.200Z,6.80
2019-05-06T02:03:45.004Z,5.67
2019-05-06T02:06:14.250Z,5.83
2019-05-06T02:08:44.784Z,9.25
2019-05-06T02:11:14.824Z,7.72
2019-05-06T02:13:44.524Z,5.87
2019-05-06T02:16:14.653Z,6.30
2019-05-06T02:18:44.907Z,5.80
2019-05-06T02:21:23.856Z,6.72
2019-05-06T02:23:53.587Z,6.75
2019-05-06T02:26:23.882Z,7.62
2019-05-06T02:28:54.637Z,6.28
2019-05-06T02:31:41.436Z,6.08
2019-05-06T02:34:11.729Z,7.08
2019-05-06T02:36:50.852Z,6.28
2019-05-06T02:39:19.496Z,7.25
2019-05-06T02:41:48.200Z,8.10
2019-05-06T02:44:16.877Z,7.95
2019-05-06T02:46:47.173Z,7.58
2019-05-06T02:49:17.465Z,6.97
2019-05-06T02:51:46.120Z,7.30
2019-05-06T02:54:14.920Z,10.48
2019-05-06T02:56:43.774Z,8.68
2019-05-06T02:59:12.933Z,7.45
2019-05-06T03:01:43.264Z,8.55
2019-05-06T03:04:13.217Z,10.35
2019-05-06T03:06:44.644Z,6.55
2019-05-06T03:09:13.447Z,7.75
2019-05-06T03:11:43.843Z,8.15
2019-05-06T03:14:13.938Z,9.00
2019-05-06T03:16:43.988Z,6.37
2019-05-06T03:19:13.517Z,8.30
2019-05-06T03:21:46.620Z,8.90
2019-05-06T03:24:17.005Z,7.03
2019-05-06T03:26:45.797Z,8.13
2019-05-06T03:29:14.491Z,7.70
2019-05-06T03:31:46.413Z,8.50
2019-05-06T03:34:36.545Z,9.10
2019-05-06T03:36:48.710Z,7.08
2019-05-06T03:39:14.184Z,9.60
2019-05-06T03:41:43.709Z,8.80
2019-05-06T03:44:16.337Z,6.70
2019-05-06T03:47:05.238Z,7.47
2019-05-06T03:49:33.813Z,11.55
2019-05-06T03:52:02.942Z,6.90
2019-05-06T03:54:34.274Z,12.15
2019-05-06T03:57:04.385Z,6.80
2019-05-06T03:59:34.273Z,7.83
2019-05-06T04:02:05.176Z,8.75
2019-05-06T04:04:33.466Z,7.17
2019-05-06T04:07:03.424Z,7.85
2019-05-06T04:09:36.387Z,8.25
2019-05-06T04:12:03.738Z,6.40
2019-05-06T04:14:34.002Z,7.20
2019-05-06T04:17:07.343Z,7.58
2019-05-06T04:19:38.183Z,8.15
2019-05-06T04:22:26.763Z,6.67
2019-05-06T04:24:57.230Z,6.12
2019-05-06T04:27:33.307Z,6.47
2019-05-06T04:30:04.318Z,8.25
2019-05-06T04:32:34.111Z,6.00
2019-05-06T04:35:04.396Z,7.42
2019-05-06T04:37:33.844Z,5.25
2019-05-06T04:40:04.509Z,5.67
2019-05-06T04:42:34.514Z,5.70
2019-05-06T04:45:04.714Z,9.08
2019-05-06T04:47:33.732Z,5.08
2019-05-06T04:50:04.960Z,5.28
2019-05-06T04:52:34.176Z,5.08
2019-05-06T04:55:06.302Z,7.00
2019-05-06T04:57:35.097Z,7.53
2019-05-06T05:00:06.024Z,4.60
2019-05-06T05:02:34.817Z,5.08
2019-05-06T05:05:04.446Z,5.35
2019-05-06T05:07:33.618Z,4.45
2019-05-06T05:10:04.453Z,8.80
2019-05-06T05:12:37.592Z,6.75
2019-05-06T05:15:12.006Z,4.87
2019-05-06T05:17:58.586Z,5.25
2019-05-06T05:20:37.019Z,3.90
2019-05-06T05:22:58.323Z,4.00
2019-05-06T05:25:27.544Z,4.95
2019-05-06T05:27:56.358Z,4.12
2019-05-06T05:30:25.024Z,6.22
2019-05-06T05:32:53.762Z,8.38
2019-05-06T05:35:22.708Z,5.25
2019-05-06T05:37:52.908Z,4.92
2019-05-06T05:40:23.313Z,5.42
2019-05-06T05:43:00.048Z,4.62
2019-05-06T05:45:28.863Z,5.25
2019-05-06T05:47:59.508Z,4.80
2019-05-06T05:50:32.682Z,4.22
2019-05-06T05:53:03.824Z,5.83
2019-05-06T05:55:33.017Z,4.97
2019-05-06T05:58:03.190Z,5.40
2019-05-06T06:00:33.806Z,5.80
2019-05-06T06:03:02.964Z,3.52
2019-05-06T06:05:32.971Z,7.50
2019-05-06T06:08:02.973Z,4.70
2019-05-06T06:10:48.311Z,8.60
2019-05-06T06:13:18.998Z,3.72
2019-05-06T06:15:55.670Z,8.88
2019-05-06T06:18:35.150Z,5.58
2019-05-06T06:21:17.584Z,4.08
2019-05-06T06:23:38.695Z,5.15
2019-05-06T06:26:07.495Z,4.25
2019-05-06T06:28:36.335Z,6.70
2019-05-06T06:31:09.576Z,4.85
2019-05-06T06:33:38.386Z,5.55
2019-05-06T06:36:08.817Z,4.53
2019-05-06T06:38:39.273Z,7.25
2019-05-06T06:41:12.122Z,6.10
2019-05-06T06:43:42.891Z,4.67
2019-05-06T06:46:12.626Z,8.95
2019-05-06T06:48:43.064Z,4.80
2019-05-06T06:51:12.417Z,5.72
2019-05-06T06:53:42.100Z,7.15
2019-05-06T06:56:28.926Z,5.22
2019-05-06T06:59:02.566Z,7.47
2019-05-06T07:01:36.506Z,6.15
2019-05-06T07:06:38.600Z,9.45
2019-05-06T07:09:07.794Z,7.75
2019-05-06T07:11:36.527Z,9.05
2019-05-06T07:14:05.323Z,9.60
2019-05-06T07:16:34.096Z,7.45
2019-05-06T07:19:03.155Z,9.60
2019-05-06T07:21:43.567Z,8.50
2019-05-06T07:24:13.138Z,7.22
2019-05-06T07:26:43.558Z,7.25
2019-05-06T07:29:21.494Z,6.78
2019-05-06T07:31:42.786Z,7.33
2019-05-06T07:34:12.017Z,8.60
2019-05-06T07:36:42.974Z,8.05
2019-05-06T07:39:15.375Z,6.33
2019-05-06T07:41:53.493Z,7.45
2019-05-06T07:44:24.202Z,11.03
2019-05-06T07:47:03.317Z,7.45
2019-05-06T07:49:32.925Z,6.87
2019-05-06T07:52:02.882Z,7.35
2019-05-06T07:54:32.995Z,8.98
2019-05-06T07:57:02.386Z,9.60
2019-05-06T07:59:33.395Z,11.25
2019-05-06T08:02:02.354Z,8.75
2019-05-06T08:04:32.424Z,9.08
2019-05-06T08:07:03.085Z,11.55
2019-05-06T08:09:32.571Z,7.50
2019-05-06T08:12:02.799Z,6.78
2019-05-06T08:14:33.846Z,9.75
2019-05-06T08:17:04.552Z,9.75
2019-05-06T08:19:33.735Z,6.85
2019-05-06T08:22:04.307Z,7.10
2019-05-06T08:24:33.312Z,7.55
2019-05-06T08:27:02.848Z,7.92
2019-05-06T08:29:33.092Z,7.97
2019-05-06T08:32:02.985Z,12.43
2019-05-06T08:34:34.094Z,9.70
2019-05-06T08:37:04.186Z,12.60
2019-05-06T08:39:32.911Z,9.03
2019-05-06T08:42:02.633Z,9.38
2019-05-06T08:44:34.396Z,10.18
2019-05-06T08:47:03.128Z,9.28
2019-05-06T08:49:33.446Z,7.58
2019-05-06T08:52:03.740Z,9.48
2019-05-06T08:54:36.680Z,7.10
2019-05-06T08:57:05.404Z,8.50
2019-05-06T08:59:34.101Z,9.25
2019-05-06T09:02:03.823Z,12.20
2019-05-06T09:04:32.550Z,7.05
2019-05-06T09:07:02.950Z,9.40
2019-05-06T09:09:32.540Z,7.17
2019-05-06T09:12:02.662Z,8.50
2019-05-06T09:14:32.686Z,8.43
2019-05-06T09:17:02.884Z,10.53
2019-05-06T09:19:33.237Z,8.45
2019-05-06T09:22:02.591Z,7.97
2019-05-06T09:24:32.098Z,7.92
2019-05-06T09:27:02.973Z,8.83
2019-05-06T09:29:33.535Z,7.40
2019-05-06T09:32:14.016Z,8.73
2019-05-06T09:34:44.403Z,8.15
2019-05-06T09:37:15.741Z,4.85
2019-05-06T09:39:47.362Z,7.00
2019-05-06T09:42:16.707Z,5.20
2019-05-06T09:44:50.250Z,5.90
2019-05-06T09:47:34.972Z,4.30
2019-05-06T09:50:05.439Z,6.35
2019-05-06T09:52:34.103Z,5.97
2019-05-06T09:55:07.040Z,8.63
2019-05-06T09:57:46.224Z,4.87
2019-05-06T10:00:16.889Z,5.40
2019-05-06T10:02:49.307Z,5.20
2019-05-06T10:05:16.048Z,3.87
2019-05-06T10:07:44.889Z,4.33
2019-05-06T10:10:13.718Z,5.87
2019-05-06T10:12:42.416Z,4.00
2019-05-06T10:15:12.734Z,4.65
2019-05-06T10:17:42.858Z,3.33
2019-05-06T10:20:12.794Z,3.77
2019-05-06T10:22:43.071Z,3.80
2019-05-06T10:25:16.360Z,5.62
2019-05-06T10:27:47.829Z,3.40
2019-05-06T10:30:17.401Z,3.55
2019-05-06T10:32:47.780Z,4.47
2019-05-06T10:35:17.075Z,11.25
2019-05-06T10:38:12.384Z,3.30
2019-05-06T10:40:59.646Z,4.50
2019-05-06T10:43:18.006Z,4.20
2019-05-06T10:45:46.657Z,3.87
2019-05-06T10:48:15.403Z,3.77
2019-05-06T10:50:45.784Z,8.23
2019-05-06T10:53:16.253Z,5.17
2019-05-06T10:55:46.691Z,8.68
2019-05-06T10:58:15.427Z,3.12
2019-05-06T11:00:44.348Z,2.70
2019-05-06T11:03:15.115Z,4.87
2019-05-06T11:05:43.972Z,6.67
2019-05-06T11:08:12.741Z,4.12
2019-05-06T11:10:45.165Z,4.35
2019-05-06T11:13:12.877Z,3.70
2019-05-06T11:15:43.401Z,4.08
2019-05-06T11:18:13.567Z,6.83
2019-05-06T11:20:43.927Z,4.12
2019-05-06T11:23:14.222Z,3.62
2019-05-06T11:25:43.486Z,4.12
2019-05-06T11:28:30.328Z,4.75
2019-05-06T11:31:02.509Z,9.43
2019-05-06T11:33:33.019Z,4.85
2019-05-06T11:36:09.053Z,3.85
2019-05-06T11:38:37.712Z,4.33
2019-05-06T11:41:06.433Z,3.52
2019-05-06T11:43:35.093Z,3.77
2019-05-06T11:46:03.911Z,4.20
2019-05-06T11:48:32.912Z,6.10
2019-05-06T11:51:03.358Z,6.03
2019-05-06T11:53:32.586Z,3.72
2019-05-06T11:56:02.111Z,4.15
2019-05-06T11:58:52.876Z,4.50
2019-05-06T12:01:25.468Z,4.87
2019-05-06T12:03:54.280Z,5.47
2019-05-06T12:06:22.936Z,4.55
2019-05-06T12:08:52.414Z,4.92
2019-05-06T12:11:23.441Z,5.03
2019-05-06T12:13:53.282Z,5.00
2019-05-06T12:16:26.223Z,5.05
2019-05-06T12:18:53.059Z,4.03
2019-05-06T12:21:23.197Z,3.75
2019-05-06T12:23:53.757Z,7.92
2019-05-06T12:26:22.631Z,4.80
2019-05-06T12:28:53.131Z,3.92
2019-05-06T12:31:23.321Z,4.70
2019-05-06T12:33:53.351Z,4.42
2019-05-06T12:36:25.130Z,5.33
2019-05-06T12:38:59.430Z,6.92
2019-05-06T12:41:28.162Z,4.33
2019-05-06T12:43:56.811Z,4.12
2019-05-06T12:46:27.149Z,4.15
2019-05-06T12:48:55.884Z,5.65
2019-05-06T12:51:24.531Z,7.35
2019-05-06T12:53:53.854Z,9.83
2019-05-06T12:56:22.745Z,3.90
2019-05-06T12:58:52.625Z,7.50
2019-05-06T13:01:22.249Z,5.00
2019-05-06T13:03:52.613Z,3.10
2019-05-06T13:06:26.332Z,4.37
2019-05-06T13:09:01.089Z,3.25
2019-05-06T13:11:23.425Z,3.37
2019-05-06T13:14:00.318Z,3.52
2019-05-06T13:16:33.199Z,3.83
2019-05-06T13:19:03.092Z,3.37
2019-05-06T13:21:32.740Z,3.22
2019-05-06T13:24:08.846Z,4.15
2019-05-06T13:26:39.094Z,5.17
2019-05-06T13:29:09.895Z,3.12
2019-05-06T13:31:40.274Z,4.25
2019-05-06T13:34:12.228Z,2.62
2019-05-06T13:36:42.868Z,3.12
2019-05-06T13:39:15.040Z,5.05
2019-05-06T13:41:42.309Z,3.33
2019-05-06T13:44:13.474Z,3.75
2019-05-06T13:46:46.108Z,10.78
2019-05-06T13:49:23.144Z,9.38
2019-05-06T13:51:53.388Z,2.90
2019-05-06T13:54:22.325Z,3.80
2019-05-06T13:59:44.083Z,3.17
2019-05-06T14:02:27.015Z,3.52
2019-05-06T14:04:58.375Z,2.87
2019-05-06T14:07:27.266Z,3.70
2019-05-06T14:09:56.007Z,3.25
2019-05-06T14:12:25.525Z,7.55
2019-05-06T14:14:55.750Z,3.75
2019-05-06T14:17:24.962Z,3.10
2019-05-06T14:19:56.136Z,3.80
2019-05-06T14:22:26.282Z,8.40
2019-05-06T14:25:00.333Z,4.17
2019-05-06T14:27:32.971Z,3.60
2019-05-06T14:30:07.592Z,3.87
2019-05-06T14:32:36.331Z,3.60
2019-05-06T14:35:06.870Z,3.67
2019-05-06T14:37:35.586Z,3.70
2019-05-06T14:40:08.533Z,3.95
2019-05-06T14:42:37.483Z,3.62
2019-05-06T14:45:07.463Z,4.53
2019-05-06T14:47:42.298Z,6.47
2019-05-06T14:50:14.409Z,5.45
2019-05-06T14:52:42.616Z,3.35
2019-05-06T14:55:15.276Z,3.45
2019-05-06T14:57:43.690Z,6.08
2019-05-06T15:00:14.330Z,4.00
2019-05-06T15:02:43.049Z,5.50
2019-05-06T15:05:13.150Z,4.35
2019-05-06T15:07:42.211Z,6.33
2019-05-06T15:10:20.273Z,5.12
2019-05-06T15:12:42.671Z,3.65
2019-05-06T15:15:12.738Z,6.03
2019-05-06T15:17:43.020Z,5.08
2019-05-06T15:20:12.260Z,4.58
2019-05-06T15:22:42.045Z,5.15
2019-05-06T15:25:12.922Z,4.45
2019-05-06T15:27:42.607Z,3.62
2019-05-06T15:30:13.620Z,8.58
2019-05-06T15:32:42.350Z,4.45
2019-05-06T15:35:22.368Z,3.75
2019-05-06T15:38:02.254Z,6.00
2019-05-06T15:40:35.986Z,4.70
2019-05-06T15:43:04.370Z,4.25
2019-05-06T15:45:33.104Z,4.08
2019-05-06T15:48:02.664Z,5.55
2019-05-06T15:50:32.432Z,7.35
2019-05-06T15:53:02.010Z,5.25
2019-05-06T15:55:32.303Z,5.15
2019-05-06T15:58:03.271Z,4.70
2019-05-06T16:00:33.091Z,4.75
2019-05-06T16:03:01.943Z,8.45
2019-05-06T16:05:33.709Z,4.28
2019-05-06T16:08:02.799Z,7.65
2019-05-06T16:10:37.881Z,4.65
2019-05-06T16:13:02.318Z,4.03
2019-05-06T16:15:33.520Z,5.08
2019-05-06T16:18:02.418Z,5.83
2019-05-06T16:20:33.287Z,5.17
2019-05-06T16:23:03.691Z,5.83
2019-05-06T16:25:32.439Z,4.95
2019-05-06T16:28:02.251Z,4.75
2019-05-06T16:30:33.701Z,8.03
2019-05-06T16:33:03.964Z,6.42
2019-05-06T16:35:32.300Z,5.00
2019-05-06T16:38:02.347Z,5.65
2019-05-06T16:40:33.497Z,5.25
2019-05-06T16:43:02.046Z,5.70
2019-05-06T16:45:30.942Z,6.42
2019-05-06T16:47:59.581Z,6.00
2019-05-06T16:50:32.449Z,9.90
2019-05-06T16:53:02.614Z,4.83
2019-05-06T16:55:48.726Z,7.78
2019-05-06T16:58:19.136Z,5.65
2019-05-06T17:00:48.171Z,6.35
2019-05-06T17:03:18.766Z,10.55
2019-05-06T17:06:07.238Z,6.92
2019-05-06T17:08:36.622Z,6.25
2019-05-06T17:11:05.626Z,9.63
2019-05-06T17:13:37.585Z,6.45
2019-05-06T17:16:04.910Z,5.45
2019-05-06T17:18:33.553Z,5.62
2019-05-06T17:21:02.247Z,5.83
2019-05-06T17:23:32.362Z,6.30
2019-05-06T17:26:01.318Z,7.75
2019-05-06T17:28:33.498Z,5.92
2019-05-06T17:31:18.704Z,6.97
2019-05-06T17:34:07.037Z,8.33
2019-05-06T17:36:37.349Z,7.80
2019-05-06T17:39:10.900Z,9.65
2019-05-06T17:41:47.626Z,9.38
2019-05-06T17:44:12.021Z,9.45
2019-05-06T17:46:45.278Z,7.92
2019-05-06T17:49:15.653Z,8.98
2019-05-06T17:52:02.972Z,8.65
2019-05-06T17:54:32.513Z,8.50
2019-05-06T17:57:03.823Z,8.15
2019-05-06T17:59:33.150Z,8.15
2019-05-06T18:02:03.656Z,15.28
2019-05-06T18:04:34.918Z,13.65
2019-05-06T18:07:03.637Z,6.70
2019-05-06T18:09:33.448Z,7.72
2019-05-06T18:12:03.157Z,7.50
2019-05-06T18:14:33.157Z,7.67
2019-05-06T18:17:03.639Z,9.10
2019-05-06T18:19:33.514Z,7.22
2019-05-06T18:22:05.058Z,7.72
2019-05-06T18:24:35.247Z,11.20
2019-05-06T18:27:04.032Z,7.90
2019-05-06T18:29:33.642Z,8.18
2019-05-06T18:32:03.711Z,12.20
2019-05-06T18:34:33.202Z,7.65
2019-05-06T18:37:03.227Z,11.73
2019-05-06T18:39:33.698Z,9.93
2019-05-06T18:42:15.556Z,10.13
2019-05-06T18:44:33.456Z,7.30
2019-05-06T18:47:02.811Z,8.73
2019-05-06T18:49:33.619Z,12.40
2019-05-06T18:52:02.374Z,12.33
2019-05-06T18:54:33.626Z,10.30
2019-05-06T18:57:04.330Z,11.43
2019-05-06T18:59:33.033Z,10.72
2019-05-06T19:02:02.243Z,9.65
2019-05-06T19:04:33.510Z,8.70
2019-05-06T19:07:12.429Z,10.98
2019-05-06T19:09:34.546Z,12.00
2019-05-06T19:12:03.755Z,16.35
2019-05-06T19:14:33.313Z,8.85
2019-05-06T19:17:02.815Z,12.43
2019-05-06T19:19:34.226Z,11.22
2019-05-06T19:22:02.911Z,8.73
2019-05-06T19:24:33.606Z,9.45
2019-05-06T19:27:02.190Z,13.88
2019-05-06T19:29:32.735Z,9.63
2019-05-06T19:32:02.966Z,11.80
2019-05-06T19:34:34.543Z,8.55
2019-05-06T19:37:02.542Z,8.83
2019-05-06T19:39:32.943Z,10.82
2019-05-06T19:42:02.802Z,10.60
2019-05-06T19:44:32.214Z,11.45
2019-05-06T19:47:02.546Z,11.63
2019-05-06T19:49:32.783Z,12.58
2019-05-06T19:52:03.158Z,11.65
2019-05-06T19:54:33.019Z,12.03
2019-05-06T19:57:02.598Z,12.25
2019-05-06T19:59:33.099Z,11.45
2019-05-06T20:02:01.931Z,13.40
2019-05-06T20:04:33.099Z,10.78
2019-05-06T20:07:05.832Z,11.20
2019-05-06T20:09:42.657Z,13.13
2019-05-06T20:12:32.762Z,10.78
2019-05-06T20:15:19.478Z,13.13
2019-05-06T20:17:48.138Z,10.85
2019-05-06T20:20:16.945Z,12.65
2019-05-06T20:22:45.664Z,12.20
2019-05-06T20:25:14.461Z,13.45
2019-05-06T20:27:43.123Z,14.40
2019-05-06T20:30:12.058Z,15.13
2019-05-06T20:32:42.524Z,12.28
2019-05-06T20:35:13.009Z,12.55
2019-05-06T20:37:42.578Z,11.35
2019-05-06T20:40:14.530Z,12.10
2019-05-06T20:42:42.707Z,14.80
2019-05-06T20:45:12.815Z,11.43
2019-05-06T20:47:42.938Z,16.00
2019-05-06T20:50:13.224Z,9.83
2019-05-06T20:52:42.518Z,9.28
2019-05-06T20:55:15.885Z,11.33
2019-05-06T20:57:42.465Z,11.22
2019-05-06T21:00:12.860Z,9.43
2019-05-06T21:02:42.499Z,11.38
2019-05-06T21:05:13.933Z,13.38
2019-05-06T21:07:43.264Z,11.60
2019-05-06T21:10:12.761Z,13.40
2019-05-06T21:12:42.235Z,10.18
2019-05-06T21:15:13.320Z,14.10
2019-05-06T21:17:42.048Z,11.73
2019-05-06T21:20:11.418Z,11.50
2019-05-06T21:22:40.074Z,14.50
2019-05-06T21:25:09.161Z,12.47
2019-05-06T21:27:37.983Z,13.72
2019-05-06T21:30:07.671Z,11.15
2019-05-06T21:32:36.399Z,11.63
2019-05-06T21:35:05.810Z,8.68
2019-05-06T21:37:34.466Z,11.33
2019-05-06T21:40:03.201Z,8.25
2019-05-06T21:42:32.559Z,11.55
2019-05-06T21:45:03.238Z,9.73
2019-05-06T21:47:32.528Z,14.30
2019-05-06T21:50:01.356Z,7.92
2019-05-06T21:52:39.303Z,9.93
2019-05-06T21:55:02.411Z,9.38
2019-05-06T21:57:30.594Z,8.25
2019-05-06T21:59:59.254Z,9.90
2019-05-06T22:02:28.106Z,7.45
2019-05-06T22:04:56.841Z,11.05
2019-05-06T22:07:25.559Z,12.07
2019-05-06T22:09:54.217Z,10.20
2019-05-06T22:12:24.525Z,8.68
2019-05-06T22:14:53.242Z,12.98
2019-05-06T22:17:22.557Z,12.43
2019-05-06T22:19:52.400Z,8.23
2019-05-06T22:22:23.426Z,8.15
2019-05-06T22:24:57.360Z,3.58
2019-05-06T22:27:22.648Z,7.45
2019-05-06T22:29:52.262Z,7.92
2019-05-06T22:32:23.128Z,4.35
2019-05-06T22:34:51.576Z,9.00
2019-05-06T22:37:22.014Z,5.95
2019-05-06T22:39:52.545Z,6.55
2019-05-06T22:42:22.592Z,6.03
2019-05-06T22:44:51.221Z,6.37
2019-05-06T22:47:19.945Z,3.47
2019-05-06T22:49:48.738Z,3.02
2019-05-06T22:52:17.386Z,5.25
2019-05-06T22:54:46.073Z,6.87
2019-05-06T22:57:14.722Z,3.47
2019-05-06T22:59:43.366Z,4.15
2019-05-06T23:02:16.512Z,3.02
2019-05-06T23:04:46.807Z,3.08
2019-05-06T23:07:16.469Z,4.70
2019-05-06T23:09:45.124Z,3.58
2019-05-06T23:12:13.778Z,5.92
2019-05-06T23:14:42.496Z,4.95
2019-05-06T23:17:12.709Z,11.10
2019-05-06T23:19:42.896Z,6.85
2019-05-06T23:22:12.222Z,4.30
2019-05-06T23:24:40.885Z,3.17
2019-05-06T23:27:09.534Z,6.35
2019-05-06T23:29:38.190Z,4.25
2019-05-06T23:32:06.910Z,4.15
2019-05-06T23:34:35.575Z,2.55
2019-05-06T23:37:07.297Z,2.47
2019-05-06T23:40:14.121Z,4.03
2019-05-06T23:43:19.059Z,4.15
2019-05-06T23:49:10.577Z,3.10
2019-05-06T23:52:15.746Z,3.83
2019-05-06T23:55:22.072Z,4.83
2019-05-06T23:57:49.778Z,3.92
